KLM2656 EKCH-EHAM
Flight info
| Callsign | KLM2656 |
|---|---|
| Flight time | 1h 10m |
| Altitude | 36000 |
| Route | LANGO M611 ALASA DCT WANZA N872 KUBAT T200 BLUFA |
| Aircraft | B738/M-SDE2E3FGHIRWXY/LB1 |
Departure
| Time | 2026-05-06 16:21 |
|---|---|
| Airport | Copenhagen Kastrup Airport (EKCH) |
Arrival
| Time | 2026-05-06 17:31 |
|---|---|
| Airport | Amsterdam Airport Schiphol (EHAM) |
| Time | Latitude | Longitude | Altitude | Speed | Heading |
|---|---|---|---|---|---|
| 2026-05-06 16:00 | 55.62649 | 12.64565 | 20 ft | 0 kts | 301° |
| 2026-05-06 16:10 | 55.62647 | 12.64570 | 20 ft | 3 kts | 300° |
| 2026-05-06 16:10 | 55.62639 | 12.64611 | 21 ft | 4 kts | 265° |
| 2026-05-06 16:10 | 55.62647 | 12.64653 | 22 ft | 4 kts | 233° |
| 2026-05-06 16:11 | 55.62653 | 12.64668 | 21 ft | 1 kts | 231° |
| 2026-05-06 16:11 | 55.62654 | 12.64669 | 21 ft | 1 kts | 231° |
| 2026-05-06 16:14 | 55.62653 | 12.64667 | 21 ft | 1 kts | 229° |
| 2026-05-06 16:14 | 55.62635 | 12.64659 | 20 ft | 6 kts | 191° |
| 2026-05-06 16:14 | 55.62574 | 12.64649 | 18 ft | 11 kts | 181° |
| 2026-05-06 16:14 | 55.62494 | 12.64656 | 22 ft | 11 kts | 172° |
| 2026-05-06 16:15 | 55.62416 | 12.64676 | 22 ft | 11 kts | 179° |
| 2026-05-06 16:15 | 55.62341 | 12.64690 | 22 ft | 11 kts | 153° |
| 2026-05-06 16:15 | 55.62294 | 12.64775 | 23 ft | 8 kts | 143° |
| 2026-05-06 16:15 | 55.62240 | 12.64793 | 23 ft | 8 kts | 186° |
| 2026-05-06 16:16 | 55.62188 | 12.64751 | 23 ft | 8 kts | 213° |
| 2026-05-06 16:16 | 55.62141 | 12.64693 | 22 ft | 8 kts | 215° |
| 2026-05-06 16:16 | 55.62091 | 12.64634 | 21 ft | 10 kts | 213° |
| 2026-05-06 16:16 | 55.62030 | 12.64563 | 19 ft | 11 kts | 212° |
| 2026-05-06 16:17 | 55.61963 | 12.64509 | 19 ft | 10 kts | 195° |
| 2026-05-06 16:17 | 55.61893 | 12.64507 | 20 ft | 10 kts | 168° |
| 2026-05-06 16:17 | 55.61820 | 12.64533 | 20 ft | 12 kts | 168° |
| 2026-05-06 16:17 | 55.61723 | 12.64566 | 18 ft | 16 kts | 172° |
| 2026-05-06 16:18 | 55.61624 | 12.64508 | 18 ft | 15 kts | 213° |
| 2026-05-06 16:18 | 55.61537 | 12.64409 | 19 ft | 15 kts | 214° |
| 2026-05-06 16:18 | 55.61445 | 12.64303 | 18 ft | 18 kts | 212° |
| 2026-05-06 16:18 | 55.61329 | 12.64170 | 15 ft | 20 kts | 213° |
| 2026-05-06 16:19 | 55.61213 | 12.64034 | 15 ft | 20 kts | 213° |
| 2026-05-06 16:19 | 55.61101 | 12.63907 | 18 ft | 19 kts | 213° |
| 2026-05-06 16:19 | 55.60991 | 12.63779 | 20 ft | 18 kts | 212° |
| 2026-05-06 16:19 | 55.60887 | 12.63659 | 20 ft | 18 kts | 212° |
| 2026-05-06 16:20 | 55.60798 | 12.63605 | 21 ft | 13 kts | 169° |
| 2026-05-06 16:20 | 55.60729 | 12.63704 | 23 ft | 13 kts | 129° |
| 2026-05-06 16:20 | 55.60689 | 12.63838 | 25 ft | 12 kts | 91° |
| 2026-05-06 16:20 | 55.60743 | 12.63978 | 27 ft | 19 kts | 41° |
| 2026-05-06 16:21 | 55.61014 | 12.64398 | 19 ft | 89 kts | 41° |
| 2026-05-06 16:21 | 55.61655 | 12.65396 | 18 ft | 151 kts | 43° |
| 2026-05-06 16:21 | 55.62490 | 12.66730 | 460 ft | 169 kts | 44° |
| 2026-05-06 16:21 | 55.63373 | 12.68067 | 1363 ft | 166 kts | 44° |
| 2026-05-06 16:22 | 55.64239 | 12.69375 | 2209 ft | 167 kts | 46° |
| 2026-05-06 16:22 | 55.65179 | 12.70834 | 2546 ft | 194 kts | 44° |
| 2026-05-06 16:22 | 55.66243 | 12.72436 | 3034 ft | 203 kts | 42° |
| 2026-05-06 16:22 | 55.67387 | 12.74111 | 3275 ft | 223 kts | 43° |
| 2026-05-06 16:23 | 55.68601 | 12.75935 | 3656 ft | 233 kts | 42° |
| 2026-05-06 16:23 | 55.69840 | 12.77829 | 4200 ft | 236 kts | 47° |
| 2026-05-06 16:23 | 55.70704 | 12.80349 | 4533 ft | 248 kts | 77° |
| 2026-05-06 16:23 | 55.70692 | 12.83411 | 5155 ft | 257 kts | 105° |
| 2026-05-06 16:24 | 55.69795 | 12.86156 | 5952 ft | 263 kts | 133° |
| 2026-05-06 16:24 | 55.68223 | 12.87906 | 6644 ft | 274 kts | 161° |
| 2026-05-06 16:24 | 55.66326 | 12.88254 | 7424 ft | 277 kts | 182° |
| 2026-05-06 16:24 | 55.64373 | 12.87989 | 8112 ft | 284 kts | 185° |
| 2026-05-06 16:25 | 55.62400 | 12.87665 | 8938 ft | 284 kts | 185° |
| 2026-05-06 16:25 | 55.60432 | 12.87356 | 9767 ft | 285 kts | 185° |
| 2026-05-06 16:25 | 55.58433 | 12.87080 | 10355 ft | 294 kts | 185° |
| 2026-05-06 16:25 | 55.56311 | 12.86824 | 10524 ft | 317 kts | 185° |
| 2026-05-06 16:26 | 55.54075 | 12.86173 | 10662 ft | 337 kts | 201° |
| 2026-05-06 16:26 | 55.52044 | 12.84012 | 11008 ft | 348 kts | 224° |
| 2026-05-06 16:26 | 55.50624 | 12.80577 | 11682 ft | 348 kts | 247° |
| 2026-05-06 16:26 | 55.49790 | 12.76611 | 12583 ft | 345 kts | 251° |
| 2026-05-06 16:27 | 55.48976 | 12.72631 | 13351 ft | 347 kts | 251° |
| 2026-05-06 16:27 | 55.48147 | 12.68582 | 13892 ft | 355 kts | 251° |
| 2026-05-06 16:27 | 55.47306 | 12.64472 | 14512 ft | 360 kts | 251° |
| 2026-05-06 16:27 | 55.46455 | 12.60321 | 15221 ft | 361 kts | 251° |
| 2026-05-06 16:28 | 55.45595 | 12.56123 | 15914 ft | 364 kts | 250° |
| 2026-05-06 16:28 | 55.44732 | 12.51910 | 16533 ft | 369 kts | 250° |
| 2026-05-06 16:28 | 55.43855 | 12.47628 | 17170 ft | 373 kts | 250° |
| 2026-05-06 16:28 | 55.42966 | 12.43292 | 17753 ft | 377 kts | 250° |
| 2026-05-06 16:29 | 55.42076 | 12.38950 | 18461 ft | 379 kts | 250° |
| 2026-05-06 16:29 | 55.41260 | 12.34534 | 18921 ft | 382 kts | 256° |
| 2026-05-06 16:29 | 55.40825 | 12.29965 | 18956 ft | 377 kts | 262° |
| 2026-05-06 16:29 | 55.40523 | 12.25384 | 19149 ft | 386 kts | 262° |
| 2026-05-06 16:30 | 55.40071 | 12.20716 | 19680 ft | 388 kts | 257° |
| 2026-05-06 16:30 | 55.39605 | 12.17619 | 20126 ft | 388 kts | 252° |
| 2026-05-06 16:30 | 55.38330 | 12.11682 | 20944 ft | 389 kts | 246° |
| 2026-05-06 16:30 | 55.37162 | 12.07441 | 21483 ft | 392 kts | 243° |
| 2026-05-06 16:31 | 55.35857 | 12.03222 | 21984 ft | 395 kts | 241° |
| 2026-05-06 16:31 | 55.34476 | 11.99034 | 22510 ft | 397 kts | 240° |
| 2026-05-06 16:31 | 55.33050 | 11.94846 | 23047 ft | 400 kts | 239° |
| 2026-05-06 16:31 | 55.31605 | 11.90662 | 23549 ft | 402 kts | 239° |
| 2026-05-06 16:32 | 55.30147 | 11.86458 | 23959 ft | 404 kts | 239° |
| 2026-05-06 16:32 | 55.28681 | 11.82236 | 24358 ft | 407 kts | 239° |
| 2026-05-06 16:32 | 55.27203 | 11.77981 | 24757 ft | 409 kts | 239° |
| 2026-05-06 16:32 | 55.25721 | 11.73717 | 25144 ft | 411 kts | 239° |
| 2026-05-06 16:33 | 55.24229 | 11.69423 | 25533 ft | 413 kts | 238° |
| 2026-05-06 16:33 | 55.22726 | 11.65104 | 25889 ft | 416 kts | 238° |
| 2026-05-06 16:33 | 55.21214 | 11.60768 | 26220 ft | 419 kts | 238° |
| 2026-05-06 16:34 | 55.18166 | 11.52041 | 27003 ft | 421 kts | 238° |
| 2026-05-06 16:34 | 55.16630 | 11.47657 | 27341 ft | 424 kts | 237° |
| 2026-05-06 16:34 | 55.15085 | 11.43254 | 27667 ft | 426 kts | 237° |
| 2026-05-06 16:34 | 55.13529 | 11.38828 | 27992 ft | 428 kts | 237° |
| 2026-05-06 16:35 | 55.11962 | 11.34380 | 28321 ft | 430 kts | 237° |
| 2026-05-06 16:35 | 55.10389 | 11.29922 | 28648 ft | 432 kts | 237° |
| 2026-05-06 16:35 | 55.08807 | 11.25447 | 28943 ft | 434 kts | 237° |
| 2026-05-06 16:35 | 55.07220 | 11.20964 | 29304 ft | 434 kts | 237° |
| 2026-05-06 16:36 | 55.05638 | 11.16503 | 29815 ft | 431 kts | 236° |
| 2026-05-06 16:36 | 55.04063 | 11.12069 | 30266 ft | 429 kts | 236° |
| 2026-05-06 16:36 | 55.02493 | 11.07657 | 30647 ft | 427 kts | 236° |
| 2026-05-06 16:36 | 55.00922 | 11.03253 | 30899 ft | 429 kts | 236° |
| 2026-05-06 16:37 | 54.99339 | 10.98821 | 31040 ft | 433 kts | 236° |
| 2026-05-06 16:37 | 54.97747 | 10.94370 | 31443 ft | 431 kts | 237° |
| 2026-05-06 16:37 | 54.96197 | 10.90046 | 32081 ft | 423 kts | 237° |
| 2026-05-06 16:37 | 54.94794 | 10.85574 | 32531 ft | 421 kts | 244° |
| 2026-05-06 16:38 | 54.93782 | 10.80783 | 32780 ft | 425 kts | 253° |
| 2026-05-06 16:38 | 54.93046 | 10.75794 | 33033 ft | 426 kts | 253° |
| 2026-05-06 16:38 | 54.92323 | 10.70797 | 33362 ft | 425 kts | 253° |
| 2026-05-06 16:38 | 54.91600 | 10.65832 | 33762 ft | 423 kts | 253° |
| 2026-05-06 16:39 | 54.90871 | 10.60895 | 34088 ft | 421 kts | 253° |
| 2026-05-06 16:39 | 54.90134 | 10.55972 | 34312 ft | 422 kts | 253° |
| 2026-05-06 16:39 | 54.89388 | 10.51042 | 34505 ft | 423 kts | 253° |
| 2026-05-06 16:39 | 54.88631 | 10.46076 | 34733 ft | 423 kts | 253° |
| 2026-05-06 16:40 | 54.87882 | 10.41176 | 34980 ft | 422 kts | 253° |
| 2026-05-06 16:40 | 54.87126 | 10.36252 | 35198 ft | 422 kts | 253° |
| 2026-05-06 16:40 | 54.86366 | 10.31320 | 35411 ft | 423 kts | 253° |
| 2026-05-06 16:40 | 54.85606 | 10.26393 | 35640 ft | 422 kts | 253° |
| 2026-05-06 16:41 | 54.84845 | 10.21472 | 35867 ft | 422 kts | 253° |
| 2026-05-06 16:41 | 54.83306 | 10.11568 | 35906 ft | 427 kts | 253° |
| 2026-05-06 16:42 | 54.81757 | 10.01656 | 35903 ft | 424 kts | 253° |
| 2026-05-06 16:42 | 54.79595 | 9.92240 | 35911 ft | 419 kts | 239° |
| 2026-05-06 16:43 | 54.76145 | 9.84164 | 35914 ft | 416 kts | 230° |
| 2026-05-06 16:43 | 54.72446 | 9.76462 | 35922 ft | 416 kts | 230° |
| 2026-05-06 16:44 | 54.68749 | 9.68754 | 35914 ft | 417 kts | 230° |
| 2026-05-06 16:44 | 54.65681 | 9.62330 | 35909 ft | 417 kts | 230° |
| 2026-05-06 16:45 | 54.61358 | 9.53272 | 35900 ft | 419 kts | 230° |
| 2026-05-06 16:45 | 54.58270 | 9.46817 | 35914 ft | 420 kts | 230° |
| 2026-05-06 16:46 | 54.54535 | 9.39029 | 35915 ft | 422 kts | 230° |
| 2026-05-06 16:46 | 54.50779 | 9.31227 | 35908 ft | 424 kts | 230° |
| 2026-05-06 16:47 | 54.47025 | 9.23450 | 35905 ft | 425 kts | 230° |
| 2026-05-06 16:47 | 54.43210 | 9.15574 | 35905 ft | 426 kts | 230° |
| 2026-05-06 16:48 | 54.39433 | 9.07800 | 35897 ft | 427 kts | 230° |
| 2026-05-06 16:48 | 54.35627 | 8.99992 | 35900 ft | 426 kts | 230° |
| 2026-05-06 16:49 | 54.31817 | 8.92201 | 35897 ft | 426 kts | 230° |
| 2026-05-06 16:49 | 54.28008 | 8.84436 | 35898 ft | 425 kts | 230° |
| 2026-05-06 16:50 | 54.24201 | 8.76698 | 35898 ft | 425 kts | 230° |
| 2026-05-06 16:50 | 54.20394 | 8.68987 | 35896 ft | 424 kts | 230° |
| 2026-05-06 16:51 | 54.16587 | 8.61298 | 35890 ft | 424 kts | 230° |
| 2026-05-06 16:51 | 54.12778 | 8.53630 | 35893 ft | 423 kts | 229° |
| 2026-05-06 16:52 | 54.08968 | 8.45985 | 35908 ft | 423 kts | 230° |
| 2026-05-06 16:52 | 54.05152 | 8.38351 | 35897 ft | 423 kts | 230° |
| 2026-05-06 16:53 | 54.01329 | 8.30726 | 35896 ft | 423 kts | 230° |
| 2026-05-06 16:53 | 53.97501 | 8.23113 | 35896 ft | 424 kts | 230° |
| 2026-05-06 16:54 | 53.93664 | 8.15507 | 35894 ft | 424 kts | 229° |
| 2026-05-06 16:54 | 53.89823 | 8.07917 | 35900 ft | 424 kts | 229° |
| 2026-05-06 16:55 | 53.85993 | 8.00372 | 35902 ft | 425 kts | 229° |
| 2026-05-06 16:55 | 53.82128 | 7.92782 | 35909 ft | 426 kts | 229° |
| 2026-05-06 16:56 | 53.78258 | 7.85204 | 35909 ft | 426 kts | 229° |
| 2026-05-06 16:56 | 53.74373 | 7.77621 | 35910 ft | 427 kts | 229° |
| 2026-05-06 16:57 | 53.70481 | 7.70048 | 35910 ft | 427 kts | 229° |
| 2026-05-06 16:57 | 53.66578 | 7.62477 | 35914 ft | 427 kts | 229° |
| 2026-05-06 16:58 | 53.62672 | 7.54922 | 35912 ft | 428 kts | 229° |
| 2026-05-06 16:58 | 53.58748 | 7.47356 | 35539 ft | 434 kts | 229° |
| 2026-05-06 16:58 | 53.56759 | 7.43529 | 35006 ft | 434 kts | 229° |
| 2026-05-06 16:59 | 53.54769 | 7.39708 | 34383 ft | 434 kts | 229° |
| 2026-05-06 16:59 | 53.52784 | 7.35900 | 33727 ft | 434 kts | 229° |
| 2026-05-06 16:59 | 53.50798 | 7.32100 | 32993 ft | 425 kts | 230° |
| 2026-05-06 16:59 | 53.48897 | 7.28470 | 32832 ft | 406 kts | 230° |
| 2026-05-06 17:00 | 53.47020 | 7.24970 | 32145 ft | 401 kts | 229° |
| 2026-05-06 17:00 | 53.45140 | 7.21563 | 31668 ft | 394 kts | 229° |
| 2026-05-06 17:00 | 53.43287 | 7.18239 | 31204 ft | 387 kts | 229° |
| 2026-05-06 17:00 | 53.41461 | 7.14967 | 30738 ft | 381 kts | 229° |
| 2026-05-06 17:01 | 53.39673 | 7.11763 | 30392 ft | 373 kts | 229° |
| 2026-05-06 17:01 | 53.37914 | 7.08604 | 29974 ft | 367 kts | 229° |
| 2026-05-06 17:01 | 53.36184 | 7.05496 | 29520 ft | 361 kts | 229° |
| 2026-05-06 17:01 | 53.34492 | 7.02457 | 29121 ft | 354 kts | 229° |
| 2026-05-06 17:02 | 53.32813 | 6.99439 | 28733 ft | 356 kts | 229° |
| 2026-05-06 17:02 | 53.31124 | 6.96401 | 28326 ft | 369 kts | 229° |
| 2026-05-06 17:02 | 53.29342 | 6.93199 | 27886 ft | 380 kts | 229° |
| 2026-05-06 17:02 | 53.27554 | 6.89998 | 27452 ft | 373 kts | 229° |
| 2026-05-06 17:03 | 53.25807 | 6.86876 | 27024 ft | 365 kts | 229° |
| 2026-05-06 17:03 | 53.24091 | 6.83816 | 26624 ft | 358 kts | 229° |
| 2026-05-06 17:03 | 53.22402 | 6.80805 | 26206 ft | 351 kts | 229° |
| 2026-05-06 17:03 | 53.20746 | 6.77856 | 25813 ft | 346 kts | 229° |
| 2026-05-06 17:04 | 53.19109 | 6.74943 | 25421 ft | 342 kts | 229° |
| 2026-05-06 17:04 | 53.17493 | 6.72071 | 25037 ft | 340 kts | 229° |
| 2026-05-06 17:04 | 53.15854 | 6.69157 | 24661 ft | 351 kts | 229° |
| 2026-05-06 17:04 | 53.14148 | 6.66124 | 24269 ft | 364 kts | 229° |
| 2026-05-06 17:05 | 53.12421 | 6.63064 | 23857 ft | 360 kts | 229° |
| 2026-05-06 17:05 | 53.10716 | 6.60051 | 23418 ft | 354 kts | 229° |
| 2026-05-06 17:05 | 53.09036 | 6.57087 | 22945 ft | 348 kts | 229° |
| 2026-05-06 17:05 | 53.07392 | 6.54189 | 22543 ft | 341 kts | 229° |
| 2026-05-06 17:06 | 53.05775 | 6.51343 | 22157 ft | 335 kts | 228° |
| 2026-05-06 17:06 | 53.04184 | 6.48542 | 21760 ft | 332 kts | 228° |
| 2026-05-06 17:06 | 53.02608 | 6.45769 | 21394 ft | 328 kts | 229° |
| 2026-05-06 17:06 | 53.01031 | 6.42998 | 21022 ft | 335 kts | 229° |
| 2026-05-06 17:07 | 52.99391 | 6.40114 | 20646 ft | 349 kts | 229° |
| 2026-05-06 17:07 | 52.97717 | 6.37179 | 20222 ft | 349 kts | 229° |
| 2026-05-06 17:07 | 52.96063 | 6.34286 | 19814 ft | 342 kts | 229° |
| 2026-05-06 17:07 | 52.94439 | 6.31450 | 19422 ft | 336 kts | 229° |
| 2026-05-06 17:08 | 52.92839 | 6.28659 | 19052 ft | 331 kts | 229° |
| 2026-05-06 17:08 | 52.91264 | 6.25914 | 18677 ft | 326 kts | 229° |
| 2026-05-06 17:08 | 52.89712 | 6.23211 | 18304 ft | 322 kts | 229° |
| 2026-05-06 17:08 | 52.88175 | 6.20534 | 17912 ft | 320 kts | 229° |
| 2026-05-06 17:09 | 52.86643 | 6.17871 | 17517 ft | 319 kts | 229° |
| 2026-05-06 17:09 | 52.85096 | 6.15181 | 17151 ft | 328 kts | 229° |
| 2026-05-06 17:09 | 52.83495 | 6.12399 | 16752 ft | 338 kts | 228° |
| 2026-05-06 17:09 | 52.81872 | 6.09586 | 16351 ft | 336 kts | 228° |
| 2026-05-06 17:10 | 52.80274 | 6.06824 | 15965 ft | 329 kts | 227° |
| 2026-05-06 17:10 | 52.78706 | 6.04116 | 15599 ft | 323 kts | 227° |
| 2026-05-06 17:10 | 52.77165 | 6.01457 | 15237 ft | 317 kts | 228° |
| 2026-05-06 17:10 | 52.75653 | 5.98850 | 14878 ft | 312 kts | 228° |
| 2026-05-06 17:11 | 52.74182 | 5.96315 | 14537 ft | 308 kts | 227° |
| 2026-05-06 17:11 | 52.72701 | 5.93766 | 14193 ft | 307 kts | 228° |
| 2026-05-06 17:11 | 52.71228 | 5.91231 | 13847 ft | 307 kts | 228° |
| 2026-05-06 17:11 | 52.69720 | 5.88639 | 13475 ft | 312 kts | 228° |
| 2026-05-06 17:12 | 52.68215 | 5.86054 | 13092 ft | 321 kts | 228° |
| 2026-05-06 17:12 | 52.66672 | 5.83408 | 12697 ft | 318 kts | 227° |
| 2026-05-06 17:12 | 52.65158 | 5.80819 | 12366 ft | 310 kts | 227° |
| 2026-05-06 17:12 | 52.63677 | 5.78288 | 11991 ft | 304 kts | 228° |
| 2026-05-06 17:13 | 52.62221 | 5.75802 | 11646 ft | 300 kts | 227° |
| 2026-05-06 17:13 | 52.60773 | 5.73328 | 11293 ft | 301 kts | 227° |
| 2026-05-06 17:13 | 52.59320 | 5.70848 | 10943 ft | 302 kts | 227° |
| 2026-05-06 17:13 | 52.57852 | 5.68346 | 10614 ft | 307 kts | 227° |
| 2026-05-06 17:14 | 52.56356 | 5.65796 | 10412 ft | 309 kts | 227° |
| 2026-05-06 17:14 | 52.54884 | 5.63296 | 10229 ft | 299 kts | 226° |
| 2026-05-06 17:14 | 52.53462 | 5.60884 | 10081 ft | 288 kts | 226° |
| 2026-05-06 17:14 | 52.52098 | 5.58573 | 9969 ft | 276 kts | 227° |
| 2026-05-06 17:15 | 52.50942 | 5.56160 | 9827 ft | 264 kts | 247° |
| 2026-05-06 17:15 | 52.50323 | 5.53371 | 9780 ft | 259 kts | 251° |
| 2026-05-06 17:15 | 52.49722 | 5.50527 | 9693 ft | 270 kts | 251° |
| 2026-05-06 17:15 | 52.49094 | 5.47574 | 9584 ft | 276 kts | 251° |
| 2026-05-06 17:16 | 52.48387 | 5.44651 | 9501 ft | 274 kts | 242° |
| 2026-05-06 17:16 | 52.47348 | 5.42057 | 9322 ft | 272 kts | 236° |
| 2026-05-06 17:16 | 52.46257 | 5.39552 | 9002 ft | 268 kts | 236° |
| 2026-05-06 17:16 | 52.45172 | 5.37052 | 8569 ft | 270 kts | 236° |
| 2026-05-06 17:17 | 52.44094 | 5.34541 | 8185 ft | 269 kts | 236° |
| 2026-05-06 17:17 | 52.43025 | 5.32023 | 7821 ft | 268 kts | 236° |
| 2026-05-06 17:17 | 52.41968 | 5.29514 | 7486 ft | 266 kts | 236° |
| 2026-05-06 17:17 | 52.40947 | 5.27082 | 7412 ft | 253 kts | 236° |
| 2026-05-06 17:18 | 52.39981 | 5.24775 | 7256 ft | 245 kts | 236° |
| 2026-05-06 17:18 | 52.39023 | 5.22482 | 6979 ft | 243 kts | 236° |
| 2026-05-06 17:18 | 52.38072 | 5.20205 | 6675 ft | 242 kts | 236° |
| 2026-05-06 17:18 | 52.37122 | 5.17932 | 6381 ft | 241 kts | 236° |
| 2026-05-06 17:19 | 52.36177 | 5.15672 | 6006 ft | 242 kts | 236° |
| 2026-05-06 17:19 | 52.35220 | 5.13388 | 5531 ft | 246 kts | 236° |
| 2026-05-06 17:19 | 52.34247 | 5.11068 | 5086 ft | 249 kts | 236° |
| 2026-05-06 17:19 | 52.33268 | 5.08715 | 4632 ft | 252 kts | 237° |
| 2026-05-06 17:20 | 52.32290 | 5.06320 | 4182 ft | 254 kts | 238° |
| 2026-05-06 17:20 | 52.31301 | 5.03901 | 3715 ft | 258 kts | 238° |
| 2026-05-06 17:20 | 52.30314 | 5.01487 | 3520 ft | 249 kts | 237° |
| 2026-05-06 17:20 | 52.29373 | 4.99166 | 3236 ft | 245 kts | 238° |
| 2026-05-06 17:21 | 52.28430 | 4.96858 | 3010 ft | 240 kts | 237° |
| 2026-05-06 17:21 | 52.27509 | 4.94619 | 3002 ft | 236 kts | 237° |
| 2026-05-06 17:21 | 52.26600 | 4.92415 | 2997 ft | 238 kts | 237° |
| 2026-05-06 17:21 | 52.25670 | 4.90144 | 3006 ft | 243 kts | 237° |
| 2026-05-06 17:22 | 52.24723 | 4.87834 | 3015 ft | 245 kts | 237° |
| 2026-05-06 17:22 | 52.23778 | 4.85520 | 3004 ft | 246 kts | 237° |
| 2026-05-06 17:22 | 52.22828 | 4.83198 | 2997 ft | 246 kts | 237° |
| 2026-05-06 17:22 | 52.21889 | 4.80900 | 2992 ft | 244 kts | 237° |
| 2026-05-06 17:23 | 52.20939 | 4.78592 | 2992 ft | 245 kts | 238° |
| 2026-05-06 17:23 | 52.19981 | 4.76270 | 3011 ft | 248 kts | 237° |
| 2026-05-06 17:23 | 52.19020 | 4.73936 | 3008 ft | 248 kts | 237° |
| 2026-05-06 17:23 | 52.18065 | 4.71614 | 3009 ft | 245 kts | 237° |
| 2026-05-06 17:24 | 52.17123 | 4.69321 | 2995 ft | 242 kts | 237° |
| 2026-05-06 17:24 | 52.16192 | 4.67059 | 2995 ft | 238 kts | 237° |
| 2026-05-06 17:24 | 52.15269 | 4.64828 | 2999 ft | 239 kts | 237° |
| 2026-05-06 17:24 | 52.14420 | 4.62488 | 2987 ft | 239 kts | 253° |
| 2026-05-06 17:25 | 52.14188 | 4.59912 | 3011 ft | 222 kts | 271° |
| 2026-05-06 17:25 | 52.14151 | 4.57479 | 2979 ft | 208 kts | 272° |
| 2026-05-06 17:25 | 52.14123 | 4.55210 | 3003 ft | 197 kts | 272° |
| 2026-05-06 17:25 | 52.14144 | 4.52992 | 3001 ft | 194 kts | 285° |
| 2026-05-06 17:26 | 52.14778 | 4.51180 | 3012 ft | 183 kts | 326° |
| 2026-05-06 17:26 | 52.15923 | 4.50525 | 2981 ft | 176 kts | 5° |
| 2026-05-06 17:26 | 52.17072 | 4.51038 | 2818 ft | 170 kts | 21° |
| 2026-05-06 17:26 | 52.18177 | 4.51720 | 2461 ft | 170 kts | 22° |
| 2026-05-06 17:27 | 52.19274 | 4.52393 | 2121 ft | 170 kts | 22° |
| 2026-05-06 17:27 | 52.20361 | 4.53067 | 2030 ft | 163 kts | 23° |
| 2026-05-06 17:27 | 52.21257 | 4.54127 | 2014 ft | 160 kts | 53° |
| 2026-05-06 17:27 | 52.21923 | 4.55638 | 2004 ft | 168 kts | 53° |
| 2026-05-06 17:28 | 52.22587 | 4.57223 | 2007 ft | 171 kts | 56° |
| 2026-05-06 17:28 | 52.23211 | 4.58823 | 2006 ft | 168 kts | 56° |
| 2026-05-06 17:28 | 52.23813 | 4.60396 | 1888 ft | 157 kts | 57° |
| 2026-05-06 17:28 | 52.24366 | 4.61844 | 1682 ft | 144 kts | 56° |
| 2026-05-06 17:29 | 52.24869 | 4.63159 | 1522 ft | 134 kts | 57° |
| 2026-05-06 17:29 | 52.25363 | 4.64452 | 1326 ft | 134 kts | 57° |
| 2026-05-06 17:29 | 52.25853 | 4.65733 | 1141 ft | 132 kts | 56° |
| 2026-05-06 17:29 | 52.26338 | 4.67001 | 976 ft | 132 kts | 56° |
| 2026-05-06 17:30 | 52.26820 | 4.68259 | 794 ft | 130 kts | 56° |
| 2026-05-06 17:30 | 52.27303 | 4.69523 | 604 ft | 133 kts | 56° |
| 2026-05-06 17:30 | 52.27632 | 4.70380 | 512 ft | 136 kts | 57° |
| 2026-05-06 17:30 | 52.28137 | 4.71699 | 319 ft | 136 kts | 54° |
| 2026-05-06 17:31 | 52.28630 | 4.72993 | 135 ft | 132 kts | 55° |
| 2026-05-06 17:31 | 52.29101 | 4.74223 | 4 ft | 122 kts | 55° |
| 2026-05-06 17:31 | 52.29437 | 4.75075 | -3 ft | 81 kts | 58° |
| 2026-05-06 17:31 | 52.29518 | 4.75285 | -3 ft | 47 kts | 58° |
| 2026-05-06 17:32 | 52.29544 | 4.75353 | -3 ft | 0 kts | 58° |
| 2026-05-06 17:32 | 52.29544 | 4.75354 | -3 ft | 0 kts | 58° |
| 2026-05-06 17:32 | 52.29546 | 4.75359 | -3 ft | 1 kts | 56° |
| 2026-05-06 17:32 | 52.29562 | 4.75384 | -3 ft | 12 kts | 33° |
| 2026-05-06 17:33 | 52.29609 | 4.75376 | -2 ft | 5 kts | 330° |
| 2026-05-06 17:33 | 52.29641 | 4.75339 | -2 ft | 6 kts | 323° |
| 2026-05-06 17:33 | 52.29666 | 4.75311 | -2 ft | 0 kts | 329° |
| 2026-05-06 17:34 | 52.29666 | 4.75310 | -2 ft | 0 kts | 329° |
| 2026-05-06 17:34 | 52.29698 | 4.75290 | -2 ft | 21 kts | 345° |
| 2026-05-06 17:34 | 52.29778 | 4.75407 | -2 ft | 16 kts | 68° |
| 2026-05-06 17:35 | 52.29831 | 4.75562 | -2 ft | 15 kts | 60° |
| 2026-05-06 17:35 | 52.29881 | 4.75699 | -2 ft | 13 kts | 59° |
| 2026-05-06 17:35 | 52.29928 | 4.75823 | -2 ft | 12 kts | 58° |
| 2026-05-06 17:36 | 52.30013 | 4.76042 | -2 ft | 12 kts | 58° |
| 2026-05-06 17:36 | 52.30069 | 4.76189 | -2 ft | 18 kts | 58° |
| 2026-05-06 17:36 | 52.30140 | 4.76375 | -2 ft | 20 kts | 58° |
| 2026-05-06 17:36 | 52.30210 | 4.76554 | -2 ft | 18 kts | 57° |
| 2026-05-06 17:37 | 52.30272 | 4.76718 | -2 ft | 16 kts | 58° |
| 2026-05-06 17:37 | 52.30328 | 4.76865 | -2 ft | 14 kts | 58° |
| 2026-05-06 17:37 | 52.30379 | 4.76996 | -2 ft | 13 kts | 55° |
| 2026-05-06 17:37 | 52.30450 | 4.77028 | -2 ft | 11 kts | 334° |
| 2026-05-06 17:38 | 52.30511 | 4.76965 | -2 ft | 10 kts | 327° |
| 2026-05-06 17:38 | 52.30567 | 4.76907 | -2 ft | 9 kts | 328° |
| 2026-05-06 17:38 | 52.30606 | 4.76833 | -2 ft | 8 kts | 299° |
| 2026-05-06 17:38 | 52.30639 | 4.76773 | -2 ft | 7 kts | 322° |
| 2026-05-06 17:39 | 52.30649 | 4.76760 | -2 ft | 1 kts | 322° |
| 2026-05-06 17:39 | 52.30649 | 4.76697 | -2 ft | 8 kts | 245° |
| 2026-05-06 17:39 | 52.30629 | 4.76643 | -2 ft | 0 kts | 237° |
| 2026-05-06 17:39 | 52.30628 | 4.76640 | -2 ft | 0 kts | 236° |
| 2026-05-06 17:40 | 52.30626 | 4.76636 | -2 ft | 0 kts | 236° |
| 2026-05-06 17:40 | 52.30625 | 4.76634 | -2 ft | 0 kts | 236° |